createdAt,value
2022-11-04T00:01:57.840Z,12.13
2022-11-04T00:04:27.090Z,12.13
2022-11-04T00:06:55.828Z,12.12
2022-11-04T00:09:25.850Z,12.14
2022-11-04T00:12:11.229Z,12.13
2022-11-04T00:14:38.473Z,12.13
2022-11-04T00:17:22.157Z,12.14
2022-11-04T00:20:10.252Z,12.13
2022-11-04T00:22:56.747Z,12.13
2022-11-04T00:28:38.431Z,12.12
2022-11-04T00:31:26.173Z,12.11
2022-11-04T00:33:55.022Z,12.10
2022-11-04T00:36:24.150Z,12.09
2022-11-04T00:38:50.884Z,12.06
2022-11-04T00:41:26.691Z,12.04
2022-11-04T00:43:58.054Z,12.03
2022-11-04T00:46:25.062Z,12.01
2022-11-04T00:48:51.719Z,12.01
2022-11-04T00:51:19.629Z,12.00
2022-11-04T00:53:46.168Z,12.02
2022-11-04T00:56:13.013Z,12.04
2022-11-04T00:58:39.649Z,12.05
2022-11-04T01:01:13.392Z,12.06
2022-11-04T01:03:40.339Z,12.08
2022-11-04T01:06:07.048Z,12.10
2022-11-04T01:08:34.082Z,12.13
2022-11-04T01:11:08.976Z,12.17
2022-11-04T01:13:36.268Z,12.21
2022-11-04T01:16:05.777Z,12.23
2022-11-04T01:18:32.920Z,12.27
2022-11-04T01:21:03.680Z,12.28
2022-11-04T01:23:30.269Z,12.32
2022-11-04T01:25:57.053Z,12.36
2022-11-04T01:28:23.686Z,12.40
2022-11-04T01:30:50.381Z,12.43
2022-11-04T01:33:16.985Z,12.46
2022-11-04T01:35:43.848Z,12.50
2022-11-04T01:38:11.257Z,12.52
2022-11-04T01:40:39.393Z,12.55
2022-11-04T01:43:20.487Z,12.58
2022-11-04T01:46:09.365Z,12.60
2022-11-04T01:48:36.279Z,12.63
2022-11-04T01:51:03.631Z,12.62
2022-11-04T01:53:34.562Z,12.63
2022-11-04T01:56:11.916Z,12.62
2022-11-04T01:58:47.665Z,12.60
2022-11-04T02:01:14.724Z,12.59
2022-11-04T02:03:50.599Z,12.57
2022-11-04T02:06:19.410Z,12.56
2022-11-04T02:08:47.270Z,12.55
2022-11-04T02:11:33.861Z,12.50
2022-11-04T02:14:01.529Z,12.47
2022-11-04T02:16:40.115Z,12.44
2022-11-04T02:19:37.995Z,12.41
2022-11-04T02:22:29.710Z,12.39
2022-11-04T02:25:05.520Z,12.39
2022-11-04T02:28:07.437Z,12.39
2022-11-04T02:30:46.851Z,12.39
2022-11-04T02:33:23.382Z,12.36
2022-11-04T02:36:09.380Z,12.35
2022-11-04T02:38:54.366Z,12.34
2022-11-04T02:41:23.951Z,12.32
2022-11-04T02:44:19.904Z,12.29
2022-11-04T02:46:51.256Z,12.28
2022-11-04T02:49:43.841Z,12.25
2022-11-04T02:52:14.718Z,12.24
2022-11-04T02:55:00.601Z,12.25
2022-11-04T02:57:32.131Z,12.24
2022-11-04T03:00:03.198Z,12.24
2022-11-04T03:02:51.387Z,12.22
2022-11-04T03:05:22.503Z,12.21
2022-11-04T03:07:52.651Z,12.21
2022-11-04T03:10:25.830Z,12.20
2022-11-04T03:13:05.164Z,12.20
2022-11-04T03:15:34.811Z,12.20
2022-11-04T03:18:16.030Z,12.19
2022-11-04T03:20:45.846Z,12.18
2022-11-04T03:23:13.007Z,12.17
2022-11-04T03:25:44.772Z,12.18
2022-11-04T03:28:23.421Z,12.16
2022-11-04T03:30:53.344Z,12.15
2022-11-04T03:33:34.892Z,12.18
2022-11-04T03:36:03.077Z,12.19
2022-11-04T03:38:29.705Z,12.20
2022-11-04T03:40:59.158Z,12.20
2022-11-04T03:43:29.178Z,12.20
2022-11-04T03:45:55.863Z,12.22
2022-11-04T03:48:23.682Z,12.23
2022-11-04T03:50:51.135Z,12.25
2022-11-04T03:53:22.440Z,12.24
2022-11-04T03:56:05.143Z,12.25
2022-11-04T03:58:51.568Z,12.26
2022-11-04T04:01:36.617Z,12.26
2022-11-04T04:04:20.434Z,12.24
2022-11-04T04:06:50.652Z,12.23
2022-11-04T04:09:26.723Z,12.20
2022-11-04T04:12:26.440Z,12.12
2022-11-04T04:14:58.917Z,12.04
2022-11-04T04:17:37.390Z,11.98
2022-11-04T04:20:09.110Z,11.93
2022-11-04T04:22:58.706Z,11.87
2022-11-04T04:25:47.141Z,11.85
2022-11-04T04:28:17.363Z,11.82
2022-11-04T04:30:44.990Z,11.79
2022-11-04T04:33:16.633Z,11.75
2022-11-04T04:35:52.922Z,11.73
2022-11-04T04:38:41.018Z,11.71
2022-11-04T04:41:35.415Z,11.70
2022-11-04T04:44:22.002Z,11.66
2022-11-04T04:46:52.094Z,11.65
2022-11-04T04:49:18.615Z,11.61
2022-11-04T04:51:47.293Z,11.61
2022-11-04T04:54:14.809Z,11.58
2022-11-04T04:56:41.356Z,11.56
2022-11-04T04:59:07.992Z,11.50
2022-11-04T05:01:34.604Z,11.48
2022-11-04T05:04:01.233Z,11.43
2022-11-04T05:06:27.804Z,11.41
2022-11-04T05:08:54.349Z,11.37
2022-11-04T05:11:24.374Z,11.34
2022-11-04T05:13:54.101Z,11.31
2022-11-04T05:16:21.143Z,11.30
2022-11-04T05:18:47.654Z,11.26
2022-11-04T05:21:15.646Z,11.24
2022-11-04T05:23:42.339Z,11.21
2022-11-04T05:26:09.133Z,11.21
2022-11-04T05:28:35.862Z,11.17
2022-11-04T05:31:05.019Z,11.15
2022-11-04T05:33:32.091Z,11.14
2022-11-04T05:36:16.493Z,11.11
2022-11-04T05:38:43.566Z,11.05
2022-11-04T05:41:12.392Z,11.02
2022-11-04T05:43:38.922Z,11.02
2022-11-04T05:46:05.731Z,10.99
2022-11-04T05:48:37.745Z,11.00
2022-11-04T05:51:06.809Z,11.02
2022-11-04T05:53:33.329Z,11.01
2022-11-04T05:55:59.869Z,10.94
2022-11-04T05:58:26.351Z,10.85
2022-11-04T06:00:52.803Z,10.77
2022-11-04T06:03:19.389Z,10.69
2022-11-04T06:05:45.989Z,10.63
2022-11-04T06:08:12.580Z,10.57
2022-11-04T06:10:39.149Z,10.50
2022-11-04T06:13:05.659Z,10.47
2022-11-04T06:15:32.163Z,10.41
2022-11-04T06:17:58.821Z,10.40
2022-11-04T06:20:25.323Z,10.39
2022-11-04T06:22:51.837Z,10.39
2022-11-04T06:25:18.410Z,10.38
2022-11-04T06:27:44.970Z,10.35
2022-11-04T06:30:12.796Z,10.34
2022-11-04T06:32:39.437Z,10.34
2022-11-04T06:35:08.848Z,10.35
2022-11-04T06:37:35.611Z,10.36
2022-11-04T06:40:02.149Z,10.40
2022-11-04T06:42:28.677Z,10.41
2022-11-04T06:44:55.179Z,10.44
2022-11-04T06:47:24.814Z,10.47
2022-11-04T06:49:51.661Z,10.47
2022-11-04T06:52:18.187Z,10.45
2022-11-04T06:54:44.710Z,10.44
2022-11-04T06:57:12.209Z,10.48
2022-11-04T06:59:38.989Z,10.54
2022-11-04T07:02:05.635Z,10.61
2022-11-04T07:04:32.210Z,10.65
2022-11-04T07:06:58.722Z,10.70
2022-11-04T07:09:25.242Z,10.75
2022-11-04T07:11:51.877Z,10.76
2022-11-04T07:14:18.347Z,10.78
2022-11-04T07:16:44.881Z,10.79
2022-11-04T07:19:11.394Z,10.77
2022-11-04T07:21:37.992Z,10.76
2022-11-04T07:24:04.788Z,10.77
2022-11-04T07:26:31.428Z,10.78
2022-11-04T07:29:00.032Z,10.78
2022-11-04T07:31:27.460Z,10.79
2022-11-04T07:33:54.333Z,10.78
2022-11-04T07:36:20.932Z,10.80
2022-11-04T07:38:47.641Z,10.82
2022-11-04T07:41:15.306Z,10.82
2022-11-04T07:43:42.080Z,10.88
2022-11-04T07:46:12.289Z,10.94
2022-11-04T07:48:39.442Z,11.00
2022-11-04T07:51:07.979Z,11.03
2022-11-04T07:53:35.303Z,11.04
2022-11-04T07:56:06.698Z,11.06
2022-11-04T07:58:33.918Z,11.12
2022-11-04T08:01:02.181Z,11.18
2022-11-04T08:03:28.861Z,11.24
2022-11-04T08:05:59.927Z,11.30
2022-11-04T08:08:27.422Z,11.35
2022-11-04T08:11:01.210Z,11.41
2022-11-04T08:13:32.559Z,11.46
2022-11-04T08:16:04.377Z,11.54
2022-11-04T08:18:32.419Z,11.62
2022-11-04T08:20:59.718Z,11.70
2022-11-04T08:23:26.310Z,11.78
2022-11-04T08:25:54.318Z,11.88
2022-11-04T08:28:20.871Z,11.94
2022-11-04T08:31:02.659Z,11.95
2022-11-04T08:33:31.155Z,12.01
2022-11-04T08:36:06.841Z,12.05
2022-11-04T08:38:34.428Z,12.08
2022-11-04T08:41:04.518Z,12.09
2022-11-04T08:43:31.386Z,12.12
2022-11-04T08:45:58.434Z,12.13
2022-11-04T08:48:25.309Z,12.17
2022-11-04T08:50:54.652Z,12.21
2022-11-04T08:53:21.276Z,12.28
2022-11-04T08:55:48.790Z,12.37
2022-11-04T08:58:16.082Z,12.50
2022-11-04T09:00:42.917Z,12.58
2022-11-04T09:03:10.090Z,12.58
2022-11-04T09:05:44.790Z,12.61
2022-11-04T09:08:12.245Z,12.60
2022-11-04T09:10:45.959Z,12.59
2022-11-04T09:13:12.903Z,12.59
2022-11-04T09:15:39.706Z,12.62
2022-11-04T09:18:06.648Z,12.63
2022-11-04T09:20:34.171Z,12.66
2022-11-04T09:23:00.729Z,12.70
2022-11-04T09:25:27.305Z,12.76
2022-11-04T09:27:54.026Z,12.78
2022-11-04T09:30:20.696Z,12.81
2022-11-04T09:32:52.406Z,12.81
2022-11-04T09:35:19.718Z,12.81
2022-11-04T09:37:46.953Z,12.82
2022-11-04T09:40:19.200Z,12.88
2022-11-04T09:43:02.246Z,12.91
2022-11-04T09:45:31.802Z,12.93
2022-11-04T09:48:03.324Z,12.98
2022-11-04T09:50:45.627Z,12.95
2022-11-04T09:53:20.187Z,12.98
2022-11-04T09:55:55.696Z,13.02
2022-11-04T09:58:22.374Z,13.04
2022-11-04T10:01:00.849Z,13.09
2022-11-04T10:03:36.568Z,13.08
2022-11-04T10:06:40.473Z,13.09
2022-11-04T10:09:31.042Z,13.13
2022-11-04T10:12:21.833Z,13.15
2022-11-04T10:15:26.105Z,13.16
2022-11-04T10:18:11.306Z,13.17
2022-11-04T10:20:45.446Z,13.18
2022-11-04T10:23:21.195Z,13.15
2022-11-04T10:26:28.705Z,13.12
2022-11-04T10:29:01.194Z,13.12
2022-11-04T10:31:28.083Z,13.11
2022-11-04T10:34:05.867Z,13.08
2022-11-04T10:36:33.595Z,13.10
2022-11-04T10:39:08.342Z,13.14
2022-11-04T10:41:38.256Z,13.17
2022-11-04T10:44:11.135Z,13.14
2022-11-04T10:46:42.483Z,13.09
2022-11-04T10:50:00.159Z,12.99
2022-11-04T10:52:28.994Z,13.01
2022-11-04T10:54:55.970Z,13.04
2022-11-04T10:57:25.604Z,13.03
2022-11-04T11:00:00.721Z,13.07
2022-11-04T11:02:45.351Z,13.11
2022-11-04T11:05:17.998Z,13.09
2022-11-04T11:07:54.459Z,13.08
2022-11-04T11:10:29.156Z,13.08
2022-11-04T11:13:08.018Z,13.06
2022-11-04T11:15:38.008Z,13.07
2022-11-04T11:18:07.698Z,13.07
2022-11-04T11:20:37.839Z,13.06
2022-11-04T11:23:10.550Z,13.06
2022-11-04T11:25:45.257Z,13.09
2022-11-04T11:28:22.321Z,13.11
2022-11-04T11:30:48.746Z,13.14
2022-11-04T11:33:33.504Z,13.20
2022-11-04T11:36:05.122Z,13.24
2022-11-04T11:38:34.277Z,13.20
2022-11-04T11:41:24.822Z,13.24
2022-11-04T11:43:54.091Z,13.28
2022-11-04T11:46:26.358Z,13.24
2022-11-04T11:48:58.112Z,13.23
2022-11-04T11:51:33.474Z,13.23
2022-11-04T11:54:35.149Z,13.28
2022-11-04T11:57:15.980Z,13.35
2022-11-04T12:02:55.272Z,13.39
2022-11-04T12:11:45.586Z,13.39
2022-11-04T12:14:49.226Z,13.37
2022-11-04T12:17:47.117Z,13.38
2022-11-04T12:20:16.790Z,13.41
2022-11-04T12:23:01.508Z,13.41
2022-11-04T12:25:48.122Z,13.43
2022-11-04T12:28:27.607Z,13.43
2022-11-04T12:31:23.551Z,13.38
2022-11-04T12:33:59.796Z,13.39
2022-11-04T12:36:44.024Z,13.37
2022-11-04T12:39:22.035Z,13.32
2022-11-04T12:42:32.734Z,13.34
2022-11-04T12:45:08.705Z,13.36
2022-11-04T12:47:43.731Z,13.38
2022-11-04T12:50:16.381Z,13.39
2022-11-04T12:53:01.500Z,13.41
2022-11-04T12:55:43.892Z,13.38
2022-11-04T12:58:29.392Z,13.39
2022-11-04T13:01:14.061Z,13.38
2022-11-04T13:03:53.576Z,13.36
2022-11-04T13:06:28.494Z,13.31
2022-11-04T13:09:02.630Z,13.32
2022-11-04T13:11:49.970Z,13.29
2022-11-04T13:14:29.923Z,13.27
2022-11-04T13:17:03.644Z,13.27
2022-11-04T13:19:45.945Z,13.28
2022-11-04T13:22:20.898Z,13.25
2022-11-04T13:25:09.146Z,13.25
2022-11-04T13:27:39.874Z,13.28
2022-11-04T13:30:25.658Z,13.24
2022-11-04T13:33:01.265Z,13.22
2022-11-04T13:35:38.271Z,13.31
2022-11-04T13:38:15.937Z,13.42
2022-11-04T13:41:08.884Z,13.63
2022-11-04T13:43:39.345Z,13.79
2022-11-04T13:46:18.815Z,13.89
2022-11-04T13:48:57.397Z,13.89
2022-11-04T13:51:33.844Z,13.87
2022-11-04T13:54:00.498Z,13.78
2022-11-04T13:56:33.899Z,13.77
2022-11-04T13:59:07.922Z,13.79
2022-11-04T14:01:37.783Z,13.76
2022-11-04T14:04:13.409Z,13.72
2022-11-04T14:06:59.978Z,13.68
2022-11-04T14:09:30.525Z,13.64
2022-11-04T14:12:17.034Z,13.61
2022-11-04T14:14:49.944Z,13.57
2022-11-04T14:17:34.920Z,13.60
2022-11-04T14:20:29.796Z,13.57
2022-11-04T14:22:58.558Z,13.56
2022-11-04T14:25:30.015Z,13.53
2022-11-04T14:28:18.502Z,13.51
2022-11-04T14:30:54.093Z,13.49
2022-11-04T14:33:28.945Z,13.43
2022-11-04T14:35:57.370Z,13.43
2022-11-04T14:38:30.245Z,13.36
2022-11-04T14:41:21.859Z,13.31
2022-11-04T14:43:54.269Z,13.29
2022-11-04T14:46:24.701Z,13.30
2022-11-04T14:48:55.765Z,13.27
2022-11-04T14:51:31.847Z,13.26
2022-11-04T14:54:21.238Z,13.24
2022-11-04T14:56:48.107Z,13.22
2022-11-04T14:59:27.366Z,13.19
2022-11-04T15:01:55.493Z,13.14
2022-11-04T15:04:27.980Z,13.07
2022-11-04T15:06:55.755Z,13.02
2022-11-04T15:09:48.532Z,12.97
2022-11-04T15:12:36.698Z,12.92
2022-11-04T15:15:26.892Z,12.87
2022-11-04T15:17:57.644Z,12.83
2022-11-04T15:20:26.576Z,12.79
2022-11-04T15:22:57.233Z,12.78
2022-11-04T15:25:23.913Z,12.75
2022-11-04T15:27:50.740Z,12.72
2022-11-04T15:30:25.244Z,12.67
2022-11-04T15:33:01.231Z,12.65
2022-11-04T15:35:33.451Z,12.60
2022-11-04T15:38:01.738Z,12.56
2022-11-04T15:40:29.764Z,12.52
2022-11-04T15:42:59.191Z,12.48
2022-11-04T15:45:39.662Z,12.43
2022-11-04T15:48:29.898Z,12.40
2022-11-04T15:51:05.840Z,12.37
2022-11-04T15:53:35.067Z,12.35
2022-11-04T15:56:02.291Z,12.35
2022-11-04T15:58:29.068Z,12.34
2022-11-04T16:00:56.642Z,12.28
2022-11-04T16:03:24.387Z,12.20
2022-11-04T16:06:08.256Z,12.12
2022-11-04T16:08:35.598Z,12.07
2022-11-04T16:11:20.195Z,12.03
2022-11-04T16:13:46.941Z,12.00
2022-11-04T16:16:25.272Z,11.95
2022-11-04T16:18:55.172Z,11.89
2022-11-04T16:21:34.912Z,11.84
2022-11-04T16:24:09.228Z,11.79
2022-11-04T16:26:42.108Z,11.76
2022-11-04T16:29:36.565Z,11.73
2022-11-04T16:32:23.833Z,11.68
2022-11-04T16:34:53.419Z,11.64
2022-11-04T16:37:19.912Z,11.64
2022-11-04T16:39:46.519Z,11.68
2022-11-04T16:42:14.599Z,11.73
2022-11-04T16:44:50.276Z,11.79
2022-11-04T16:47:19.033Z,11.84
2022-11-04T16:49:46.342Z,11.86
2022-11-04T16:52:25.396Z,11.87
2022-11-04T16:54:52.575Z,11.91
2022-11-04T16:57:19.213Z,11.98
2022-11-04T16:59:45.730Z,12.04
2022-11-04T17:02:37.478Z,12.09
2022-11-04T17:05:05.425Z,12.15
2022-11-04T17:07:51.541Z,12.18
2022-11-04T17:10:21.977Z,12.20
2022-11-04T17:12:48.605Z,12.23
2022-11-04T17:15:16.350Z,12.25
2022-11-04T17:17:43.285Z,12.26
2022-11-04T17:20:15.353Z,12.28
2022-11-04T17:22:43.049Z,12.29
2022-11-04T17:25:16.389Z,12.28
2022-11-04T17:27:42.999Z,12.29
2022-11-04T17:30:10.136Z,12.31
2022-11-04T17:32:36.671Z,12.33
2022-11-04T17:35:03.351Z,12.36
2022-11-04T17:37:30.044Z,12.38
2022-11-04T17:39:56.671Z,12.38
2022-11-04T17:42:41.671Z,12.41
2022-11-04T17:45:08.851Z,12.43
2022-11-04T17:47:37.078Z,12.40
2022-11-04T17:50:08.008Z,12.36
2022-11-04T17:52:35.904Z,12.32
2022-11-04T17:55:03.542Z,12.30
2022-11-04T17:57:30.054Z,12.26
2022-11-04T17:59:56.723Z,12.23
2022-11-04T18:02:23.377Z,12.20
2022-11-04T18:04:49.943Z,12.17
2022-11-04T18:07:16.770Z,12.15
2022-11-04T18:09:43.345Z,12.13
2022-11-04T18:12:28.528Z,12.08
2022-11-04T18:14:55.103Z,12.04
2022-11-04T18:17:24.783Z,11.99
2022-11-04T18:19:52.410Z,11.96
2022-11-04T18:22:19.762Z,11.93
2022-11-04T18:24:47.750Z,11.92
2022-11-04T18:27:15.801Z,11.93
2022-11-04T18:29:42.450Z,11.95
2022-11-04T18:32:08.915Z,12.00
2022-11-04T18:34:35.689Z,12.04
2022-11-04T18:37:02.487Z,12.06
2022-11-04T18:39:29.186Z,12.08
2022-11-04T18:41:55.832Z,12.09
2022-11-04T18:44:22.909Z,12.11
2022-11-04T18:46:55.258Z,12.12
2022-11-04T18:49:22.496Z,12.15
2022-11-04T18:51:50.258Z,12.16
2022-11-04T18:54:16.872Z,12.16
2022-11-04T18:56:43.942Z,12.14
2022-11-04T18:59:12.884Z,12.10
2022-11-04T19:01:39.767Z,12.08
2022-11-04T19:04:06.800Z,12.04
2022-11-04T19:06:40.918Z,12.02
2022-11-04T19:09:40.138Z,11.99
2022-11-04T19:12:15.861Z,11.94
2022-11-04T19:14:42.728Z,11.91
2022-11-04T19:17:09.796Z,11.88
2022-11-04T19:19:36.480Z,11.85
2022-11-04T19:22:03.242Z,11.82
2022-11-04T19:24:29.950Z,11.75
2022-11-04T19:26:56.517Z,11.66
2022-11-04T19:29:25.549Z,11.57
2022-11-04T19:31:52.433Z,11.45
2022-11-04T19:34:18.992Z,11.33
2022-11-04T19:36:45.657Z,11.20
2022-11-04T19:39:12.314Z,11.11
2022-11-04T19:41:57.547Z,11.02
2022-11-04T19:44:24.175Z,10.91
2022-11-04T19:46:50.904Z,10.82
2022-11-04T19:49:18.089Z,10.76
2022-11-04T19:51:44.998Z,10.69
2022-11-04T19:54:11.889Z,10.63
2022-11-04T19:56:38.602Z,10.58
2022-11-04T19:59:06.755Z,10.55
2022-11-04T20:01:35.325Z,10.55
2022-11-04T20:04:02.974Z,10.59
2022-11-04T20:06:32.009Z,10.62
2022-11-04T20:09:01.673Z,10.66
2022-11-04T20:11:28.689Z,10.70
2022-11-04T20:13:56.320Z,10.71
2022-11-04T20:16:31.455Z,10.71
2022-11-04T20:19:01.377Z,10.71
2022-11-04T20:21:32.399Z,10.71
2022-11-04T20:24:02.228Z,10.71
2022-11-04T20:26:30.737Z,10.70
2022-11-04T20:29:00.947Z,10.70
2022-11-04T20:31:30.115Z,10.71
2022-11-04T20:33:57.747Z,10.71
2022-11-04T20:36:27.517Z,10.71
2022-11-04T20:38:59.229Z,10.71
2022-11-04T20:41:26.817Z,10.70
2022-11-04T20:43:55.787Z,10.66
2022-11-04T20:46:34.919Z,10.59
2022-11-04T20:49:03.095Z,10.54
2022-11-04T20:51:32.552Z,10.49
2022-11-04T20:54:01.145Z,10.44
2022-11-04T20:56:33.469Z,10.39
2022-11-04T20:59:01.522Z,10.33
2022-11-04T21:01:31.122Z,10.30
2022-11-04T21:04:11.550Z,10.26
2022-11-04T21:06:39.445Z,10.22
2022-11-04T21:09:08.745Z,10.18
2022-11-04T21:11:35.931Z,10.12
2022-11-04T21:14:04.344Z,10.06
2022-11-04T21:16:31.243Z,10.01
2022-11-04T21:18:57.915Z,9.96
2022-11-04T21:21:29.810Z,9.90
2022-11-04T21:24:00.904Z,9.86
2022-11-04T21:26:33.028Z,9.81
2022-11-04T21:29:03.181Z,9.78
2022-11-04T21:31:31.511Z,9.73
2022-11-04T21:33:59.062Z,9.69
2022-11-04T21:36:26.075Z,9.65
2022-11-04T21:38:53.278Z,9.61
2022-11-04T21:41:26.404Z,9.57
2022-11-04T21:44:01.511Z,9.52
2022-11-04T21:46:30.617Z,9.48
2022-11-04T21:48:57.384Z,9.40
2022-11-04T21:51:28.916Z,9.36
2022-11-04T21:53:56.304Z,9.28
2022-11-04T21:56:28.868Z,9.22
2022-11-04T21:58:55.860Z,9.18
2022-11-04T22:01:26.080Z,9.16
2022-11-04T22:04:00.721Z,9.14
2022-11-04T22:06:33.542Z,9.12
2022-11-04T22:09:02.898Z,9.09
2022-11-04T22:11:31.948Z,9.06
2022-11-04T22:14:01.310Z,9.04
2022-11-04T22:16:30.485Z,9.01
2022-11-04T22:18:59.290Z,8.99
2022-11-04T22:21:27.320Z,8.97
2022-11-04T22:23:54.488Z,8.97
2022-11-04T22:26:26.619Z,8.96
2022-11-04T22:28:54.137Z,8.96
2022-11-04T22:31:25.008Z,8.93
2022-11-04T22:33:52.672Z,8.92
2022-11-04T22:36:19.999Z,8.90
2022-11-04T22:38:49.293Z,8.88
2022-11-04T22:41:22.565Z,8.92
2022-11-04T22:43:49.270Z,9.00
2022-11-04T22:46:24.183Z,9.08
2022-11-04T22:48:50.738Z,9.17
2022-11-04T22:51:17.741Z,9.24
2022-11-04T22:53:44.963Z,9.30
2022-11-04T22:56:13.516Z,9.33
2022-11-04T22:58:40.807Z,9.38
2022-11-04T23:01:10.832Z,9.41
2022-11-04T23:03:38.003Z,9.48
2022-11-04T23:06:05.876Z,9.53
2022-11-04T23:08:34.527Z,9.56
2022-11-04T23:11:23.596Z,9.58
2022-11-04T23:14:15.744Z,9.61
2022-11-04T23:17:07.099Z,9.62
2022-11-04T23:19:33.743Z,9.62
2022-11-04T23:22:19.142Z,9.63
2022-11-04T23:25:04.504Z,9.62
2022-11-04T23:27:50.881Z,9.58
2022-11-04T23:30:25.659Z,9.58
2022-11-04T23:32:57.437Z,9.58
2022-11-04T23:35:48.764Z,9.58
2022-11-04T23:38:15.930Z,9.59
2022-11-04T23:40:42.633Z,9.61
2022-11-04T23:43:09.575Z,9.62
2022-11-04T23:45:55.171Z,9.60
2022-11-04T23:48:40.895Z,9.57
2022-11-04T23:51:29.898Z,9.51
2022-11-04T23:54:14.970Z,9.42
2022-11-04T23:57:00.080Z,9.34
2022-11-04T23:59:45.151Z,9.25
